createdAt,value
2022-10-26T00:04:00.522Z,95824.25
2022-10-26T00:09:03.174Z,95816.44
2022-10-26T00:14:06.013Z,95813.50
2022-10-26T00:19:08.601Z,95820.19
2022-10-26T00:24:11.231Z,95810.53
2022-10-26T00:29:18.326Z,95794.66
2022-10-26T00:34:21.028Z,95789.28
2022-10-26T00:39:23.733Z,95793.06
2022-10-26T00:44:27.145Z,95780.63
2022-10-26T00:49:29.892Z,95771.47
2022-10-26T00:54:32.552Z,95770.97
2022-10-26T00:59:35.276Z,95781.72
2022-10-26T01:04:37.846Z,95778.50
2022-10-26T01:09:40.436Z,95781.44
2022-10-26T01:14:43.205Z,95788.38
2022-10-26T01:19:47.714Z,95786.72
2022-10-26T01:24:50.394Z,95794.25
2022-10-26T01:29:53.522Z,95792.34
2022-10-26T01:34:56.534Z,95793.47
2022-10-26T01:39:59.214Z,95808.03
2022-10-26T01:45:01.870Z,95807.44
2022-10-26T01:50:05.023Z,95801.53
2022-10-26T01:55:07.644Z,95793.47
2022-10-26T02:00:10.273Z,95791.66
2022-10-26T02:05:13.378Z,95792.75
2022-10-26T02:10:16.049Z,95795.69
2022-10-26T02:15:18.725Z,95797.34
2022-10-26T02:20:21.675Z,95807.03
2022-10-26T02:25:24.268Z,95827.75
2022-10-26T02:30:26.863Z,95811.09
2022-10-26T02:35:29.411Z,95806.00
2022-10-26T02:40:32.035Z,95805.41
2022-10-26T02:45:35.005Z,95818.28
2022-10-26T02:50:37.736Z,95817.75
2022-10-26T02:55:41.351Z,95810.72
2022-10-26T03:00:43.971Z,95802.91
2022-10-26T03:05:46.587Z,95786.47
2022-10-26T03:10:49.232Z,95805.53
2022-10-26T03:15:51.835Z,95752.81
2022-10-26T03:20:54.407Z,95761.47
2022-10-26T03:25:57.044Z,95766.66
2022-10-26T03:30:59.673Z,95763.41
2022-10-26T03:36:02.378Z,95769.06
2022-10-26T03:41:05.413Z,95768.72
2022-10-26T03:46:08.099Z,95771.47
2022-10-26T03:51:10.822Z,95771.47
2022-10-26T03:56:13.509Z,95776.84
2022-10-26T04:01:16.248Z,95782.50
2022-10-26T04:06:18.989Z,95787.59
2022-10-26T04:11:21.565Z,95780.31
2022-10-26T04:16:26.521Z,95788.38
2022-10-26T04:21:32.822Z,95796.41
2022-10-26T04:26:35.470Z,95805.53
2022-10-26T04:31:38.264Z,95800.13
2022-10-26T04:36:40.986Z,95799.84
2022-10-26T04:41:43.843Z,95802.00
2022-10-26T04:46:46.826Z,95812.50
2022-10-26T04:51:49.471Z,95838.09
2022-10-26T04:56:52.096Z,95858.81
2022-10-26T05:01:55.221Z,95880.03
2022-10-26T05:06:57.955Z,95900.47
2022-10-26T05:12:00.538Z,95931.72
2022-10-26T05:17:03.120Z,95937.94
2022-10-26T05:22:06.123Z,95926.94
2022-10-26T05:27:08.719Z,95927.22
2022-10-26T05:32:11.302Z,95932.06
2022-10-26T05:37:13.871Z,95947.38
2022-10-26T05:42:16.520Z,95968.09
2022-10-26T05:47:19.118Z,95972.13
2022-10-26T05:52:21.723Z,95969.44
2022-10-26T05:57:24.344Z,95978.59
2022-10-26T06:02:27.064Z,95970.03
2022-10-26T06:07:29.762Z,95997.41
2022-10-26T06:12:32.376Z,96004.41
2022-10-26T06:17:34.985Z,95989.09
2022-10-26T06:22:37.585Z,95985.06
2022-10-26T06:27:40.159Z,95985.06
2022-10-26T06:32:42.841Z,95997.72
2022-10-26T06:37:45.786Z,95999.56
2022-10-26T06:42:48.403Z,95985.00
2022-10-26T06:47:51.308Z,95994.97
2022-10-26T06:52:53.982Z,96000.53
2022-10-26T06:57:56.663Z,95996.16
2022-10-26T07:03:00.116Z,95986.94
2022-10-26T07:08:03.242Z,95990.66
2022-10-26T07:13:05.851Z,95996.50
2022-10-26T07:18:08.569Z,95992.63
2022-10-26T07:23:11.938Z,96005.53
2022-10-26T07:28:14.497Z,95994.66
2022-10-26T07:33:17.130Z,96006.00
2022-10-26T07:38:19.712Z,95997.25
2022-10-26T07:43:22.272Z,95999.69
2022-10-26T07:48:24.866Z,95996.72
2022-10-26T07:53:28.164Z,95984.56
2022-10-26T07:58:30.937Z,95973.50
2022-10-26T08:03:33.783Z,95966.94
2022-10-26T08:08:36.477Z,95969.25
2022-10-26T08:13:39.171Z,95969.88
2022-10-26T08:18:41.822Z,95985.44
2022-10-26T08:23:44.498Z,95980.94
2022-10-26T08:28:47.165Z,95984.75
2022-10-26T08:33:49.785Z,95989.78
2022-10-26T08:38:52.789Z,95962.13
2022-10-26T08:43:55.941Z,95964.72
2022-10-26T08:48:58.629Z,95967.88
2022-10-26T08:54:01.310Z,95973.16
2022-10-26T08:59:04.048Z,95984.09
2022-10-26T09:04:06.867Z,95985.59
2022-10-26T09:09:09.579Z,95977.94
2022-10-26T09:14:12.261Z,95980.00
2022-10-26T09:19:14.921Z,95979.72
2022-10-26T09:24:17.551Z,95970.16
2022-10-26T09:29:20.252Z,95974.91
2022-10-26T09:34:22.913Z,95984.75
2022-10-26T09:39:26.046Z,95989.78
2022-10-26T09:44:28.702Z,95979.56
2022-10-26T09:49:32.966Z,95992.53
2022-10-26T09:54:35.724Z,95996.09
2022-10-26T09:59:38.390Z,96006.09
2022-10-26T10:04:41.305Z,96012.50
2022-10-26T10:09:44.009Z,96004.84
2022-10-26T10:14:46.681Z,96009.66
2022-10-26T10:19:49.383Z,96012.41
2022-10-26T10:24:56.151Z,96025.94
2022-10-26T10:30:03.070Z,96025.44
2022-10-26T10:35:07.174Z,96032.66
2022-10-26T10:40:09.738Z,96028.78
2022-10-26T10:45:12.746Z,96032.63
2022-10-26T10:50:15.373Z,96025.41
2022-10-26T10:55:18.147Z,96028.00
2022-10-26T11:00:20.751Z,96033.78
2022-10-26T11:05:26.404Z,96040.19
2022-10-26T11:10:30.258Z,96047.06
2022-10-26T11:15:33.028Z,96042.59
2022-10-26T11:20:35.679Z,96044.81
2022-10-26T11:25:38.305Z,96045.16
2022-10-26T11:30:40.931Z,96037.97
2022-10-26T11:35:43.505Z,96037.81
2022-10-26T11:40:46.308Z,96051.84
2022-10-26T11:45:48.953Z,96053.97
2022-10-26T11:50:51.597Z,96058.41
2022-10-26T11:55:54.414Z,96059.56
2022-10-26T12:00:59.440Z,96068.25
2022-10-26T12:06:02.067Z,96075.91
2022-10-26T12:11:04.805Z,96084.94
2022-10-26T12:16:07.528Z,96085.91
2022-10-26T12:21:10.255Z,96092.63
2022-10-26T12:26:12.903Z,96100.50
2022-10-26T12:31:15.621Z,96106.88
2022-10-26T12:36:18.198Z,96111.50
2022-10-26T12:41:21.099Z,96115.03
2022-10-26T12:46:23.700Z,96105.59
2022-10-26T12:51:26.385Z,96117.94
2022-10-26T12:56:28.990Z,96116.19
2022-10-26T13:01:31.693Z,96128.84
2022-10-26T13:06:34.781Z,96117.16
2022-10-26T13:11:38.397Z,96118.09
2022-10-26T13:16:41.056Z,96115.06
2022-10-26T13:21:43.653Z,96126.31
2022-10-26T13:26:46.297Z,96128.53
2022-10-26T13:31:48.967Z,96125.03
2022-10-26T13:36:51.765Z,96131.59
2022-10-26T13:41:54.437Z,96129.97
2022-10-26T13:46:57.420Z,96137.97
2022-10-26T13:52:00.091Z,96132.22
2022-10-26T13:57:02.761Z,96138.31
2022-10-26T14:02:05.436Z,96150.66
2022-10-26T14:07:08.447Z,96150.66
2022-10-26T14:12:11.254Z,96157.56
2022-10-26T14:17:13.886Z,96154.50
2022-10-26T14:22:20.818Z,96150.31
2022-10-26T14:27:25.452Z,96157.22
2022-10-26T14:32:28.083Z,96154.50
2022-10-26T14:37:30.747Z,96154.66
2022-10-26T14:42:33.323Z,96166.69
2022-10-26T14:47:35.858Z,96168.91
2022-10-26T14:52:38.454Z,96163.44
2022-10-26T14:57:41.107Z,96175.59
2022-10-26T15:02:43.784Z,96177.56
2022-10-26T15:07:46.751Z,96178.97
2022-10-26T15:12:49.601Z,96191.69
2022-10-26T15:17:52.593Z,96189.81
2022-10-26T15:22:55.559Z,96195.78
2022-10-26T15:27:58.197Z,96206.13
2022-10-26T15:33:00.881Z,96208.44
2022-10-26T15:38:04.139Z,96215.19
2022-10-26T15:43:07.235Z,96212.81
2022-10-26T15:48:09.935Z,96217.16
2022-10-26T15:53:12.600Z,96222.31
2022-10-26T15:58:15.230Z,96214.25
2022-10-26T16:03:20.557Z,96231.41
2022-10-26T16:08:23.205Z,96230.53
2022-10-26T16:13:26.636Z,96236.06
2022-10-26T16:18:29.346Z,96245.59
2022-10-26T16:23:37.023Z,96246.63
2022-10-26T16:28:39.669Z,96247.41
2022-10-26T16:33:42.434Z,96258.78
2022-10-26T16:38:45.091Z,96252.09
2022-10-26T16:43:47.749Z,96267.97
2022-10-26T16:48:51.097Z,96272.69
2022-10-26T16:53:53.779Z,96274.59
2022-10-26T16:58:56.621Z,96286.03
2022-10-26T17:04:01.070Z,96290.97
2022-10-26T17:09:04.986Z,96304.03
2022-10-26T17:14:07.703Z,96307.41
2022-10-26T17:19:10.385Z,96309.53
2022-10-26T17:24:13.717Z,96317.25
2022-10-26T17:29:16.441Z,96324.03
2022-10-26T17:34:19.153Z,96335.19
2022-10-26T17:39:21.845Z,96328.38
2022-10-26T17:44:24.637Z,96341.38
2022-10-26T17:49:28.617Z,96344.91
2022-10-26T17:54:32.987Z,96362.69
2022-10-26T17:59:35.727Z,96363.41
2022-10-26T18:04:38.460Z,96364.97
2022-10-26T18:09:41.143Z,96377.34
2022-10-26T18:14:43.906Z,96378.94
2022-10-26T18:19:46.838Z,96382.88
2022-10-26T18:24:49.602Z,96400.84
2022-10-26T18:29:52.296Z,96405.75
2022-10-26T18:34:55.656Z,96404.75
2022-10-26T18:39:58.373Z,96415.19
2022-10-26T18:45:03.315Z,96424.41
2022-10-26T18:50:05.916Z,96423.63
2022-10-26T18:55:08.600Z,96431.34
2022-10-26T19:00:11.339Z,96435.44
2022-10-26T19:05:14.141Z,96442.19
2022-10-26T19:10:16.970Z,96440.94
2022-10-26T19:15:19.665Z,96452.94
2022-10-26T19:20:22.438Z,96458.41
2022-10-26T19:25:25.600Z,96463.28
2022-10-26T19:30:28.505Z,96468.72
2022-10-26T19:35:31.303Z,96471.44
2022-10-26T19:40:34.531Z,96477.13
2022-10-26T19:45:37.118Z,96475.50
2022-10-26T19:50:39.816Z,96487.91
2022-10-26T19:55:42.559Z,96492.50
2022-10-26T20:00:45.392Z,96497.63
2022-10-26T20:05:49.898Z,96496.28
2022-10-26T20:10:52.650Z,96504.38
2022-10-26T20:15:55.238Z,96510.03
2022-10-26T20:20:57.855Z,96502.22
2022-10-26T20:26:03.306Z,96505.75
2022-10-26T20:31:06.149Z,96514.34
2022-10-26T20:36:08.816Z,96508.13
2022-10-26T20:41:11.518Z,96507.06
2022-10-26T20:46:14.109Z,96518.13
2022-10-26T20:51:17.929Z,96511.59
2022-10-26T20:56:22.346Z,96515.38
2022-10-26T21:01:25.014Z,96520.47
2022-10-26T21:06:28.427Z,96526.91
2022-10-26T21:11:30.965Z,96526.66
2022-10-26T21:16:33.638Z,96531.75
2022-10-26T21:21:36.302Z,96533.38
2022-10-26T21:26:38.981Z,96532.56
2022-10-26T21:31:41.680Z,96530.13
2022-10-26T21:36:44.561Z,96532.84
2022-10-26T21:41:47.658Z,96537.13
2022-10-26T21:46:50.368Z,96533.31
2022-10-26T21:51:53.036Z,96537.63
2022-10-26T21:56:55.759Z,96545.13
2022-10-26T22:01:58.536Z,96543.47
2022-10-26T22:07:01.349Z,96542.59
2022-10-26T22:12:04.656Z,96536.38
2022-10-26T22:17:07.397Z,96546.06
2022-10-26T22:22:13.139Z,96539.56
2022-10-26T22:27:15.926Z,96544.91
2022-10-26T22:32:18.568Z,96546.03
2022-10-26T22:37:22.127Z,96555.91
2022-10-26T22:42:24.671Z,96547.00
2022-10-26T22:47:27.265Z,96558.53
2022-10-26T22:52:29.881Z,96559.13
2022-10-26T22:57:32.457Z,96555.81
2022-10-26T23:02:35.837Z,96551.78
2022-10-26T23:07:48.812Z,96548.84
2022-10-26T23:12:51.785Z,96542.59
2022-10-26T23:17:54.397Z,96547.97
2022-10-26T23:22:57.052Z,96547.41
2022-10-26T23:27:59.671Z,96548.41
2022-10-26T23:33:02.359Z,96546.81
2022-10-26T23:38:05.077Z,96555.88
2022-10-26T23:43:07.886Z,96552.69
2022-10-26T23:48:10.448Z,96548.97
2022-10-26T23:53:13.659Z,96548.41
2022-10-26T23:58:16.201Z,96558.06
